sensor_id;sensor_type;location;lat;lon;timestamp;P1;durP1;ratioP1;P2;durP2;ratioP2
44832;SDS011;30569;51.252;9.830;2022-12-20T00:01:48;25.07;;;13.10;;
44832;SDS011;30569;51.252;9.830;2022-12-20T00:04:14;25.40;;;13.77;;
44832;SDS011;30569;51.252;9.830;2022-12-20T00:06:40;27.17;;;13.47;;
44832;SDS011;30569;51.252;9.830;2022-12-20T00:09:06;24.80;;;13.37;;
44832;SDS011;30569;51.252;9.830;2022-12-20T00:11:33;21.30;;;12.43;;
44832;SDS011;30569;51.252;9.830;2022-12-20T00:13:59;25.27;;;14.00;;
44832;SDS011;30569;51.252;9.830;2022-12-20T00:16:26;25.97;;;14.50;;
44832;SDS011;30569;51.252;9.830;2022-12-20T00:18:53;23.53;;;13.53;;
44832;SDS011;30569;51.252;9.830;2022-12-20T00:21:24;23.47;;;13.93;;
44832;SDS011;30569;51.252;9.830;2022-12-20T00:23:50;27.00;;;15.77;;
44832;SDS011;30569;51.252;9.830;2022-12-20T00:26:17;25.45;;;14.23;;
44832;SDS011;30569;51.252;9.830;2022-12-20T00:28:44;25.17;;;14.47;;
44832;SDS011;30569;51.252;9.830;2022-12-20T00:31:11;25.58;;;14.05;;
44832;SDS011;30569;51.252;9.830;2022-12-20T00:33:39;27.05;;;13.45;;
44832;SDS011;30569;51.252;9.830;2022-12-20T00:36:05;26.83;;;14.03;;
44832;SDS011;30569;51.252;9.830;2022-12-20T00:38:32;27.23;;;15.03;;
44832;SDS011;30569;51.252;9.830;2022-12-20T00:41:33;24.83;;;14.82;;
44832;SDS011;30569;51.252;9.830;2022-12-20T00:43:51;25.23;;;14.47;;
44832;SDS011;30569;51.252;9.830;2022-12-20T00:46:18;30.40;;;15.50;;
44832;SDS011;30569;51.252;9.830;2022-12-20T00:48:44;27.90;;;15.30;;
44832;SDS011;30569;51.252;9.830;2022-12-20T00:51:11;24.90;;;14.73;;
44832;SDS011;30569;51.252;9.830;2022-12-20T00:53:39;24.87;;;13.63;;
44832;SDS011;30569;51.252;9.830;2022-12-20T00:56:05;25.93;;;14.70;;
44832;SDS011;30569;51.252;9.830;2022-12-20T00:58:32;20.87;;;11.87;;
44832;SDS011;30569;51.252;9.830;2022-12-20T01:00:59;23.67;;;13.40;;
44832;SDS011;30569;51.252;9.830;2022-12-20T01:03:25;24.07;;;13.87;;
44832;SDS011;30569;51.252;9.830;2022-12-20T01:05:58;20.10;;;12.03;;
44832;SDS011;30569;51.252;9.830;2022-12-20T01:11:05;21.40;;;11.93;;
44832;SDS011;30569;51.252;9.830;2022-12-20T01:13:33;23.73;;;13.43;;
44832;SDS011;30569;51.252;9.830;2022-12-20T01:16:04;22.60;;;12.43;;
44832;SDS011;30569;51.252;9.830;2022-12-20T01:18:31;22.80;;;12.23;;
44832;SDS011;30569;51.252;9.830;2022-12-20T01:21:02;21.60;;;12.73;;
44832;SDS011;30569;51.252;9.830;2022-12-20T01:23:29;20.70;;;11.83;;
44832;SDS011;30569;51.252;9.830;2022-12-20T01:25:56;20.97;;;12.30;;
44832;SDS011;30569;51.252;9.830;2022-12-20T01:28:23;23.17;;;12.50;;
44832;SDS011;30569;51.252;9.830;2022-12-20T01:30:49;21.03;;;13.10;;
44832;SDS011;30569;51.252;9.830;2022-12-20T01:33:15;22.20;;;12.60;;
44832;SDS011;30569;51.252;9.830;2022-12-20T01:35:41;21.67;;;12.50;;
44832;SDS011;30569;51.252;9.830;2022-12-20T01:38:07;21.53;;;12.23;;
44832;SDS011;30569;51.252;9.830;2022-12-20T01:40:33;21.47;;;12.40;;
44832;SDS011;30569;51.252;9.830;2022-12-20T01:42:59;20.33;;;12.07;;
44832;SDS011;30569;51.252;9.830;2022-12-20T01:45:26;22.73;;;12.67;;
44832;SDS011;30569;51.252;9.830;2022-12-20T01:47:54;21.07;;;12.33;;
44832;SDS011;30569;51.252;9.830;2022-12-20T01:50:21;22.07;;;12.03;;
44832;SDS011;30569;51.252;9.830;2022-12-20T01:52:47;24.90;;;11.80;;
44832;SDS011;30569;51.252;9.830;2022-12-20T01:55:23;20.40;;;12.20;;
44832;SDS011;30569;51.252;9.830;2022-12-20T01:57:53;22.33;;;12.40;;
44832;SDS011;30569;51.252;9.830;2022-12-20T02:00:28;20.13;;;12.43;;
44832;SDS011;30569;51.252;9.830;2022-12-20T02:02:54;25.27;;;13.40;;
44832;SDS011;30569;51.252;9.830;2022-12-20T02:05:24;21.50;;;12.17;;
44832;SDS011;30569;51.252;9.830;2022-12-20T02:07:50;24.57;;;12.83;;
44832;SDS011;30569;51.252;9.830;2022-12-20T02:10:18;24.63;;;13.07;;
44832;SDS011;30569;51.252;9.830;2022-12-20T02:12:46;23.93;;;13.00;;
44832;SDS011;30569;51.252;9.830;2022-12-20T02:15:29;21.10;;;12.50;;
44832;SDS011;30569;51.252;9.830;2022-12-20T02:21:03;22.50;;;13.38;;
44832;SDS011;30569;51.252;9.830;2022-12-20T02:32:01;24.77;;;13.83;;
44832;SDS011;30569;51.252;9.830;2022-12-20T02:34:38;24.77;;;13.90;;
44832;SDS011;30569;51.252;9.830;2022-12-20T02:37:05;22.57;;;13.03;;
44832;SDS011;30569;51.252;9.830;2022-12-20T02:39:30;20.77;;;12.68;;
44832;SDS011;30569;51.252;9.830;2022-12-20T02:42:00;22.95;;;13.88;;
44832;SDS011;30569;51.252;9.830;2022-12-20T02:47:19;24.17;;;12.77;;
44832;SDS011;30569;51.252;9.830;2022-12-20T02:49:49;22.50;;;13.27;;
44832;SDS011;30569;51.252;9.830;2022-12-20T02:52:18;22.80;;;13.13;;
44832;SDS011;30569;51.252;9.830;2022-12-20T02:54:49;24.40;;;15.17;;
44832;SDS011;30569;51.252;9.830;2022-12-20T02:57:16;22.92;;;13.13;;
44832;SDS011;30569;51.252;9.830;2022-12-20T03:02:33;22.63;;;12.50;;
44832;SDS011;30569;51.252;9.830;2022-12-20T03:05:19;22.55;;;12.18;;
44832;SDS011;30569;51.252;9.830;2022-12-20T03:07:47;22.40;;;12.82;;
44832;SDS011;30569;51.252;9.830;2022-12-20T03:10:13;24.97;;;14.20;;
44832;SDS011;30569;51.252;9.830;2022-12-20T03:12:39;24.15;;;14.38;;
44832;SDS011;30569;51.252;9.830;2022-12-20T03:15:06;21.90;;;12.60;;
44832;SDS011;30569;51.252;9.830;2022-12-20T03:17:31;24.92;;;14.32;;
44832;SDS011;30569;51.252;9.830;2022-12-20T03:19:57;22.95;;;12.57;;
44832;SDS011;30569;51.252;9.830;2022-12-20T03:22:23;23.10;;;13.65;;
44832;SDS011;30569;51.252;9.830;2022-12-20T03:24:49;21.30;;;12.70;;
44832;SDS011;30569;51.252;9.830;2022-12-20T03:27:15;25.38;;;14.32;;
44832;SDS011;30569;51.252;9.830;2022-12-20T03:29:41;23.70;;;13.57;;
44832;SDS011;30569;51.252;9.830;2022-12-20T03:32:06;23.63;;;13.63;;
44832;SDS011;30569;51.252;9.830;2022-12-20T03:34:32;23.40;;;14.23;;
44832;SDS011;30569;51.252;9.830;2022-12-20T03:36:58;24.37;;;14.73;;
44832;SDS011;30569;51.252;9.830;2022-12-20T03:39:24;22.27;;;13.20;;
44832;SDS011;30569;51.252;9.830;2022-12-20T03:41:50;24.97;;;14.80;;
44832;SDS011;30569;51.252;9.830;2022-12-20T03:44:16;27.05;;;14.43;;
44832;SDS011;30569;51.252;9.830;2022-12-20T03:46:42;37.67;;;20.20;;
44832;SDS011;30569;51.252;9.830;2022-12-20T03:49:08;59.63;;;29.20;;
44832;SDS011;30569;51.252;9.830;2022-12-20T03:51:34;25.58;;;14.05;;
44832;SDS011;30569;51.252;9.830;2022-12-20T03:54:00;30.20;;;17.13;;
44832;SDS011;30569;51.252;9.830;2022-12-20T03:56:26;30.77;;;15.32;;
44832;SDS011;30569;51.252;9.830;2022-12-20T03:58:52;28.00;;;14.57;;
44832;SDS011;30569;51.252;9.830;2022-12-20T04:01:27;104.10;;;45.22;;
44832;SDS011;30569;51.252;9.830;2022-12-20T04:03:53;72.32;;;31.00;;
44832;SDS011;30569;51.252;9.830;2022-12-20T04:06:20;45.30;;;23.00;;
44832;SDS011;30569;51.252;9.830;2022-12-20T04:08:47;31.23;;;17.17;;
44832;SDS011;30569;51.252;9.830;2022-12-20T04:11:13;25.73;;;15.10;;
44832;SDS011;30569;51.252;9.830;2022-12-20T04:13:45;48.25;;;21.55;;
44832;SDS011;30569;51.252;9.830;2022-12-20T04:16:19;24.42;;;13.85;;
44832;SDS011;30569;51.252;9.830;2022-12-20T04:18:47;26.70;;;13.73;;
44832;SDS011;30569;51.252;9.830;2022-12-20T04:21:13;51.95;;;23.30;;
44832;SDS011;30569;51.252;9.830;2022-12-20T04:23:40;37.33;;;19.23;;
44832;SDS011;30569;51.252;9.830;2022-12-20T04:26:07;60.53;;;27.10;;
44832;SDS011;30569;51.252;9.830;2022-12-20T04:28:34;54.85;;;24.48;;
44832;SDS011;30569;51.252;9.830;2022-12-20T04:31:00;62.70;;;28.85;;
44832;SDS011;30569;51.252;9.830;2022-12-20T04:33:27;150.25;;;57.55;;
44832;SDS011;30569;51.252;9.830;2022-12-20T04:35:53;33.75;;;17.13;;
44832;SDS011;30569;51.252;9.830;2022-12-20T04:38:19;39.47;;;20.08;;
44832;SDS011;30569;51.252;9.830;2022-12-20T04:40:49;86.15;;;39.03;;
44832;SDS011;30569;51.252;9.830;2022-12-20T04:43:16;35.75;;;18.67;;
44832;SDS011;30569;51.252;9.830;2022-12-20T04:45:42;32.63;;;17.92;;
44832;SDS011;30569;51.252;9.830;2022-12-20T04:48:09;34.70;;;20.98;;
44832;SDS011;30569;51.252;9.830;2022-12-20T04:50:35;31.77;;;17.65;;
44832;SDS011;30569;51.252;9.830;2022-12-20T04:53:01;45.13;;;24.90;;
44832;SDS011;30569;51.252;9.830;2022-12-20T04:55:46;26.73;;;14.65;;
44832;SDS011;30569;51.252;9.830;2022-12-20T04:58:11;42.10;;;23.40;;
44832;SDS011;30569;51.252;9.830;2022-12-20T05:00:37;61.00;;;33.00;;
44832;SDS011;30569;51.252;9.830;2022-12-20T05:03:02;40.78;;;23.38;;
44832;SDS011;30569;51.252;9.830;2022-12-20T05:05:28;28.70;;;16.30;;
44832;SDS011;30569;51.252;9.830;2022-12-20T05:07:54;26.92;;;15.48;;
44832;SDS011;30569;51.252;9.830;2022-12-20T05:10:20;28.40;;;17.45;;
44832;SDS011;30569;51.252;9.830;2022-12-20T05:12:46;26.15;;;15.38;;
44832;SDS011;30569;51.252;9.830;2022-12-20T05:15:12;26.00;;;15.52;;
44832;SDS011;30569;51.252;9.830;2022-12-20T05:17:38;21.35;;;13.88;;
44832;SDS011;30569;51.252;9.830;2022-12-20T05:20:04;22.02;;;13.75;;
44832;SDS011;30569;51.252;9.830;2022-12-20T05:22:30;27.05;;;18.30;;
44832;SDS011;30569;51.252;9.830;2022-12-20T05:25:15;26.15;;;16.00;;
44832;SDS011;30569;51.252;9.830;2022-12-20T05:28:00;23.90;;;14.32;;
44832;SDS011;30569;51.252;9.830;2022-12-20T05:30:26;25.17;;;15.77;;
44832;SDS011;30569;51.252;9.830;2022-12-20T05:32:51;22.83;;;13.88;;
44832;SDS011;30569;51.252;9.830;2022-12-20T05:35:17;25.42;;;13.15;;
44832;SDS011;30569;51.252;9.830;2022-12-20T05:37:43;22.90;;;12.80;;
44832;SDS011;30569;51.252;9.830;2022-12-20T05:40:09;20.25;;;12.10;;
44832;SDS011;30569;51.252;9.830;2022-12-20T05:42:35;19.20;;;10.95;;
44832;SDS011;30569;51.252;9.830;2022-12-20T05:45:02;20.02;;;11.30;;
44832;SDS011;30569;51.252;9.830;2022-12-20T05:47:28;20.05;;;12.02;;
44832;SDS011;30569;51.252;9.830;2022-12-20T05:49:57;20.75;;;11.65;;
44832;SDS011;30569;51.252;9.830;2022-12-20T05:52:23;19.33;;;11.20;;
44832;SDS011;30569;51.252;9.830;2022-12-20T05:54:49;19.05;;;11.82;;
44832;SDS011;30569;51.252;9.830;2022-12-20T05:57:15;20.35;;;11.57;;
44832;SDS011;30569;51.252;9.830;2022-12-20T05:59:41;20.08;;;11.23;;
44832;SDS011;30569;51.252;9.830;2022-12-20T06:02:07;19.73;;;11.93;;
44832;SDS011;30569;51.252;9.830;2022-12-20T06:04:34;18.23;;;11.38;;
44832;SDS011;30569;51.252;9.830;2022-12-20T06:07:00;23.15;;;13.57;;
44832;SDS011;30569;51.252;9.830;2022-12-20T06:09:26;22.20;;;12.10;;
44832;SDS011;30569;51.252;9.830;2022-12-20T06:11:52;19.45;;;11.02;;
44832;SDS011;30569;51.252;9.830;2022-12-20T06:14:19;20.00;;;11.60;;
44832;SDS011;30569;51.252;9.830;2022-12-20T06:16:44;23.45;;;13.82;;
44832;SDS011;30569;51.252;9.830;2022-12-20T06:19:10;22.95;;;13.77;;
44832;SDS011;30569;51.252;9.830;2022-12-20T06:21:36;22.92;;;13.40;;
44832;SDS011;30569;51.252;9.830;2022-12-20T06:24:02;30.38;;;18.85;;
44832;SDS011;30569;51.252;9.830;2022-12-20T06:26:28;30.77;;;17.25;;
44832;SDS011;30569;51.252;9.830;2022-12-20T06:28:59;19.10;;;11.48;;
44832;SDS011;30569;51.252;9.830;2022-12-20T06:31:26;29.40;;;17.98;;
44832;SDS011;30569;51.252;9.830;2022-12-20T06:33:52;28.15;;;17.00;;
44832;SDS011;30569;51.252;9.830;2022-12-20T06:36:18;18.40;;;11.82;;
44832;SDS011;30569;51.252;9.830;2022-12-20T06:38:44;21.75;;;13.98;;
44832;SDS011;30569;51.252;9.830;2022-12-20T06:41:10;19.38;;;12.88;;
44832;SDS011;30569;51.252;9.830;2022-12-20T06:43:35;22.50;;;12.68;;
44832;SDS011;30569;51.252;9.830;2022-12-20T06:46:01;22.02;;;12.73;;
44832;SDS011;30569;51.252;9.830;2022-12-20T06:48:27;24.17;;;13.30;;
44832;SDS011;30569;51.252;9.830;2022-12-20T06:50:53;22.35;;;13.60;;
44832;SDS011;30569;51.252;9.830;2022-12-20T06:53:19;18.08;;;10.55;;
44832;SDS011;30569;51.252;9.830;2022-12-20T06:55:46;19.90;;;11.75;;
44832;SDS011;30569;51.252;9.830;2022-12-20T06:58:14;21.13;;;12.90;;
44832;SDS011;30569;51.252;9.830;2022-12-20T07:00:40;20.30;;;11.93;;
44832;SDS011;30569;51.252;9.830;2022-12-20T07:03:06;19.33;;;11.82;;
44832;SDS011;30569;51.252;9.830;2022-12-20T07:05:32;17.92;;;11.70;;
44832;SDS011;30569;51.252;9.830;2022-12-20T07:07:58;22.33;;;13.02;;
44832;SDS011;30569;51.252;9.830;2022-12-20T07:10:24;24.25;;;12.13;;
44832;SDS011;30569;51.252;9.830;2022-12-20T07:12:51;20.27;;;11.90;;
44832;SDS011;30569;51.252;9.830;2022-12-20T07:15:16;18.70;;;11.77;;
44832;SDS011;30569;51.252;9.830;2022-12-20T07:17:44;21.50;;;13.98;;
44832;SDS011;30569;51.252;9.830;2022-12-20T07:20:09;24.05;;;11.90;;
44832;SDS011;30569;51.252;9.830;2022-12-20T07:22:36;22.38;;;12.40;;
44832;SDS011;30569;51.252;9.830;2022-12-20T07:25:01;21.45;;;12.43;;
44832;SDS011;30569;51.252;9.830;2022-12-20T07:27:28;23.27;;;13.40;;
44832;SDS011;30569;51.252;9.830;2022-12-20T07:29:54;27.50;;;16.80;;
44832;SDS011;30569;51.252;9.830;2022-12-20T07:32:20;24.85;;;13.63;;
44832;SDS011;30569;51.252;9.830;2022-12-20T07:34:46;29.95;;;13.85;;
44832;SDS011;30569;51.252;9.830;2022-12-20T07:37:12;21.15;;;10.98;;
44832;SDS011;30569;51.252;9.830;2022-12-20T07:39:38;21.02;;;12.20;;
44832;SDS011;30569;51.252;9.830;2022-12-20T07:42:06;19.83;;;11.73;;
44832;SDS011;30569;51.252;9.830;2022-12-20T07:44:33;18.67;;;10.77;;
44832;SDS011;30569;51.252;9.830;2022-12-20T07:46:59;18.40;;;11.68;;
44832;SDS011;30569;51.252;9.830;2022-12-20T07:49:25;21.80;;;12.00;;
44832;SDS011;30569;51.252;9.830;2022-12-20T07:51:52;18.98;;;12.32;;
44832;SDS011;30569;51.252;9.830;2022-12-20T07:54:26;20.45;;;11.32;;
44832;SDS011;30569;51.252;9.830;2022-12-20T07:56:55;18.20;;;10.48;;
44832;SDS011;30569;51.252;9.830;2022-12-20T07:59:25;17.52;;;10.57;;
44832;SDS011;30569;51.252;9.830;2022-12-20T08:01:58;19.77;;;11.82;;
44832;SDS011;30569;51.252;9.830;2022-12-20T08:04:25;19.17;;;12.05;;
44832;SDS011;30569;51.252;9.830;2022-12-20T08:06:54;18.88;;;10.88;;
44832;SDS011;30569;51.252;9.830;2022-12-20T08:09:23;17.17;;;11.23;;
44832;SDS011;30569;51.252;9.830;2022-12-20T08:11:52;21.73;;;12.38;;
44832;SDS011;30569;51.252;9.830;2022-12-20T08:14:18;21.90;;;12.82;;
44832;SDS011;30569;51.252;9.830;2022-12-20T08:16:44;17.35;;;10.30;;
44832;SDS011;30569;51.252;9.830;2022-12-20T08:19:10;18.13;;;11.02;;
44832;SDS011;30569;51.252;9.830;2022-12-20T08:21:36;16.02;;;10.43;;
44832;SDS011;30569;51.252;9.830;2022-12-20T08:24:03;17.15;;;10.55;;
44832;SDS011;30569;51.252;9.830;2022-12-20T08:26:29;17.80;;;9.68;;
44832;SDS011;30569;51.252;9.830;2022-12-20T08:28:54;14.90;;;9.98;;
44832;SDS011;30569;51.252;9.830;2022-12-20T08:31:20;17.92;;;9.95;;
44832;SDS011;30569;51.252;9.830;2022-12-20T08:33:46;16.65;;;9.93;;
44832;SDS011;30569;51.252;9.830;2022-12-20T08:36:12;17.70;;;8.98;;
44832;SDS011;30569;51.252;9.830;2022-12-20T08:38:38;15.63;;;8.52;;
44832;SDS011;30569;51.252;9.830;2022-12-20T08:41:09;16.48;;;9.63;;
44832;SDS011;30569;51.252;9.830;2022-12-20T08:43:36;18.15;;;9.07;;
44832;SDS011;30569;51.252;9.830;2022-12-20T08:46:03;13.57;;;7.90;;
44832;SDS011;30569;51.252;9.830;2022-12-20T08:48:29;14.82;;;8.35;;
44832;SDS011;30569;51.252;9.830;2022-12-20T08:50:56;15.80;;;8.50;;
44832;SDS011;30569;51.252;9.830;2022-12-20T08:53:24;14.88;;;8.48;;
44832;SDS011;30569;51.252;9.830;2022-12-20T08:55:51;16.45;;;10.55;;
44832;SDS011;30569;51.252;9.830;2022-12-20T08:58:17;15.25;;;9.27;;
44832;SDS011;30569;51.252;9.830;2022-12-20T09:00:42;16.77;;;8.63;;
44832;SDS011;30569;51.252;9.830;2022-12-20T09:03:09;15.93;;;10.20;;
44832;SDS011;30569;51.252;9.830;2022-12-20T09:05:35;14.45;;;8.00;;
44832;SDS011;30569;51.252;9.830;2022-12-20T09:08:01;15.50;;;9.02;;
44832;SDS011;30569;51.252;9.830;2022-12-20T09:10:27;13.52;;;8.10;;
44832;SDS011;30569;51.252;9.830;2022-12-20T09:12:53;15.57;;;8.68;;
44832;SDS011;30569;51.252;9.830;2022-12-20T09:15:19;13.52;;;7.68;;
44832;SDS011;30569;51.252;9.830;2022-12-20T09:17:44;13.27;;;7.93;;
44832;SDS011;30569;51.252;9.830;2022-12-20T09:20:11;15.20;;;7.90;;
44832;SDS011;30569;51.252;9.830;2022-12-20T09:22:36;15.30;;;7.20;;
44832;SDS011;30569;51.252;9.830;2022-12-20T09:25:03;12.88;;;7.95;;
44832;SDS011;30569;51.252;9.830;2022-12-20T09:27:31;12.52;;;7.63;;
44832;SDS011;30569;51.252;9.830;2022-12-20T09:29:57;12.15;;;7.00;;
44832;SDS011;30569;51.252;9.830;2022-12-20T09:32:22;13.43;;;7.00;;
44832;SDS011;30569;51.252;9.830;2022-12-20T09:34:48;14.35;;;7.07;;
44832;SDS011;30569;51.252;9.830;2022-12-20T09:37:13;12.02;;;7.38;;
44832;SDS011;30569;51.252;9.830;2022-12-20T09:39:39;12.13;;;7.20;;
44832;SDS011;30569;51.252;9.830;2022-12-20T09:42:06;13.18;;;6.85;;
44832;SDS011;30569;51.252;9.830;2022-12-20T09:44:34;14.25;;;7.03;;
44832;SDS011;30569;51.252;9.830;2022-12-20T09:47:04;12.07;;;6.82;;
44832;SDS011;30569;51.252;9.830;2022-12-20T09:49:34;13.90;;;7.30;;
44832;SDS011;30569;51.252;9.830;2022-12-20T09:52:13;12.95;;;6.65;;
44832;SDS011;30569;51.252;9.830;2022-12-20T10:00:00;12.45;;;6.80;;
44832;SDS011;30569;51.252;9.830;2022-12-20T10:02:25;11.90;;;7.07;;
44832;SDS011;30569;51.252;9.830;2022-12-20T10:04:53;10.85;;;6.63;;
44832;SDS011;30569;51.252;9.830;2022-12-20T10:07:35;12.90;;;6.30;;
44832;SDS011;30569;51.252;9.830;2022-12-20T10:16:09;12.55;;;6.13;;
44832;SDS011;30569;51.252;9.830;2022-12-20T10:18:57;11.38;;;6.38;;
44832;SDS011;30569;51.252;9.830;2022-12-20T10:21:55;10.70;;;5.80;;
44832;SDS011;30569;51.252;9.830;2022-12-20T10:24:31;11.80;;;6.38;;
44832;SDS011;30569;51.252;9.830;2022-12-20T10:27:13;13.43;;;6.20;;
44832;SDS011;30569;51.252;9.830;2022-12-20T10:29:41;18.42;;;10.20;;
44832;SDS011;30569;51.252;9.830;2022-12-20T10:32:15;10.48;;;6.57;;
44832;SDS011;30569;51.252;9.830;2022-12-20T10:35:29;12.27;;;6.93;;
44832;SDS011;30569;51.252;9.830;2022-12-20T10:37:34;13.38;;;7.00;;
44832;SDS011;30569;51.252;9.830;2022-12-20T10:40:00;10.98;;;6.40;;
44832;SDS011;30569;51.252;9.830;2022-12-20T10:47:40;9.25;;;5.32;;
44832;SDS011;30569;51.252;9.830;2022-12-20T10:52:41;11.93;;;5.85;;
44832;SDS011;30569;51.252;9.830;2022-12-20T10:58:05;21.45;;;8.52;;
44832;SDS011;30569;51.252;9.830;2022-12-20T11:01:07;12.20;;;7.22;;
44832;SDS011;30569;51.252;9.830;2022-12-20T11:06:21;12.57;;;7.25;;
44832;SDS011;30569;51.252;9.830;2022-12-20T11:08:50;9.50;;;5.97;;
44832;SDS011;30569;51.252;9.830;2022-12-20T11:11:17;9.50;;;5.13;;
44832;SDS011;30569;51.252;9.830;2022-12-20T11:13:49;9.15;;;5.78;;
44832;SDS011;30569;51.252;9.830;2022-12-20T11:16:23;10.27;;;5.32;;
44832;SDS011;30569;51.252;9.830;2022-12-20T11:21:36;9.98;;;5.80;;
44832;SDS011;30569;51.252;9.830;2022-12-20T11:32:34;14.43;;;6.05;;
44832;SDS011;30569;51.252;9.830;2022-12-20T11:38:11;9.38;;;5.32;;
44832;SDS011;30569;51.252;9.830;2022-12-20T11:40:52;10.88;;;5.88;;
44832;SDS011;30569;51.252;9.830;2022-12-20T11:46:13;9.35;;;5.85;;
44832;SDS011;30569;51.252;9.830;2022-12-20T11:56:31;16.45;;;6.55;;
44832;SDS011;30569;51.252;9.830;2022-12-20T11:59:02;14.50;;;6.80;;
44832;SDS011;30569;51.252;9.830;2022-12-20T12:01:41;10.48;;;6.97;;
44832;SDS011;30569;51.252;9.830;2022-12-20T12:04:15;11.40;;;6.07;;
44832;SDS011;30569;51.252;9.830;2022-12-20T12:06:43;11.88;;;5.75;;
44832;SDS011;30569;51.252;9.830;2022-12-20T12:11:50;9.55;;;5.45;;
44832;SDS011;30569;51.252;9.830;2022-12-20T12:14:45;9.07;;;5.45;;
44832;SDS011;30569;51.252;9.830;2022-12-20T12:17:31;8.00;;;4.53;;
44832;SDS011;30569;51.252;9.830;2022-12-20T12:20:20;9.82;;;5.25;;
44832;SDS011;30569;51.252;9.830;2022-12-20T12:22:57;14.55;;;6.65;;
44832;SDS011;30569;51.252;9.830;2022-12-20T12:25:29;9.60;;;5.32;;
44832;SDS011;30569;51.252;9.830;2022-12-20T12:27:55;10.90;;;5.30;;
44832;SDS011;30569;51.252;9.830;2022-12-20T12:30:21;11.48;;;4.72;;
44832;SDS011;30569;51.252;9.830;2022-12-20T12:35:37;11.63;;;6.18;;
44832;SDS011;30569;51.252;9.830;2022-12-20T12:43:52;10.00;;;5.82;;
44832;SDS011;30569;51.252;9.830;2022-12-20T12:46:38;9.55;;;5.53;;
44832;SDS011;30569;51.252;9.830;2022-12-20T12:49:05;9.27;;;5.82;;
44832;SDS011;30569;51.252;9.830;2022-12-20T12:51:55;10.77;;;6.18;;
44832;SDS011;30569;51.252;9.830;2022-12-20T12:54:24;14.40;;;6.78;;
44832;SDS011;30569;51.252;9.830;2022-12-20T12:56:51;13.82;;;6.90;;
44832;SDS011;30569;51.252;9.830;2022-12-20T12:59:45;14.10;;;7.13;;
44832;SDS011;30569;51.252;9.830;2022-12-20T13:04:54;9.55;;;6.15;;
44832;SDS011;30569;51.252;9.830;2022-12-20T13:07:25;10.05;;;5.88;;
44832;SDS011;30569;51.252;9.830;2022-12-20T13:09:57;11.43;;;6.13;;
44832;SDS011;30569;51.252;9.830;2022-12-20T13:20:33;11.10;;;5.55;;
44832;SDS011;30569;51.252;9.830;2022-12-20T13:25:32;11.05;;;5.43;;
44832;SDS011;30569;51.252;9.830;2022-12-20T13:30:46;11.32;;;4.85;;
44832;SDS011;30569;51.252;9.830;2022-12-20T13:33:41;11.88;;;6.18;;
44832;SDS011;30569;51.252;9.830;2022-12-20T13:43:57;14.07;;;8.52;;
44832;SDS011;30569;51.252;9.830;2022-12-20T13:46:44;10.93;;;5.88;;
44832;SDS011;30569;51.252;9.830;2022-12-20T13:49:25;12.07;;;7.68;;
44832;SDS011;30569;51.252;9.830;2022-12-20T13:52:37;10.70;;;5.88;;
44832;SDS011;30569;51.252;9.830;2022-12-20T13:55:15;10.88;;;5.90;;
44832;SDS011;30569;51.252;9.830;2022-12-20T13:57:50;11.00;;;6.40;;
44832;SDS011;30569;51.252;9.830;2022-12-20T14:00:18;9.05;;;5.20;;
44832;SDS011;30569;51.252;9.830;2022-12-20T14:02:49;9.32;;;5.53;;
44832;SDS011;30569;51.252;9.830;2022-12-20T14:07:42;12.00;;;6.97;;
44832;SDS011;30569;51.252;9.830;2022-12-20T14:10:19;12.13;;;7.72;;
44832;SDS011;30569;51.252;9.830;2022-12-20T14:12:48;8.30;;;4.82;;
44832;SDS011;30569;51.252;9.830;2022-12-20T14:15:22;15.55;;;8.30;;
44832;SDS011;30569;51.252;9.830;2022-12-20T14:17:48;11.13;;;5.80;;
44832;SDS011;30569;51.252;9.830;2022-12-20T14:20:15;11.13;;;5.97;;
44832;SDS011;30569;51.252;9.830;2022-12-20T14:25:26;8.98;;;4.75;;
44832;SDS011;30569;51.252;9.830;2022-12-20T14:27:53;11.35;;;6.32;;
44832;SDS011;30569;51.252;9.830;2022-12-20T14:32:56;24.58;;;13.35;;
44832;SDS011;30569;51.252;9.830;2022-12-20T14:35:22;19.70;;;11.13;;
44832;SDS011;30569;51.252;9.830;2022-12-20T14:37:56;15.20;;;9.18;;
44832;SDS011;30569;51.252;9.830;2022-12-20T14:40:24;16.17;;;7.50;;
44832;SDS011;30569;51.252;9.830;2022-12-20T14:42:51;14.63;;;8.25;;
44832;SDS011;30569;51.252;9.830;2022-12-20T14:45:18;12.00;;;6.47;;
44832;SDS011;30569;51.252;9.830;2022-12-20T14:50:29;17.40;;;9.80;;
44832;SDS011;30569;51.252;9.830;2022-12-20T14:52:56;11.85;;;6.38;;
44832;SDS011;30569;51.252;9.830;2022-12-20T14:55:33;8.95;;;5.50;;
44832;SDS011;30569;51.252;9.830;2022-12-20T14:58:23;10.95;;;5.32;;
44832;SDS011;30569;51.252;9.830;2022-12-20T15:00:55;8.82;;;5.20;;
44832;SDS011;30569;51.252;9.830;2022-12-20T15:03:21;9.93;;;5.13;;
44832;SDS011;30569;51.252;9.830;2022-12-20T15:05:51;8.75;;;5.28;;
44832;SDS011;30569;51.252;9.830;2022-12-20T15:08:31;13.98;;;6.72;;
44832;SDS011;30569;51.252;9.830;2022-12-20T15:13:39;11.48;;;5.53;;
44832;SDS011;30569;51.252;9.830;2022-12-20T15:18:37;9.00;;;5.18;;
44832;SDS011;30569;51.252;9.830;2022-12-20T15:21:04;12.32;;;6.57;;
44832;SDS011;30569;51.252;9.830;2022-12-20T15:23:39;11.90;;;5.72;;
44832;SDS011;30569;51.252;9.830;2022-12-20T15:26:09;9.35;;;5.10;;
44832;SDS011;30569;51.252;9.830;2022-12-20T15:28:41;9.60;;;5.13;;
44832;SDS011;30569;51.252;9.830;2022-12-20T15:31:14;10.50;;;5.35;;
44832;SDS011;30569;51.252;9.830;2022-12-20T15:33:42;9.30;;;5.07;;
44832;SDS011;30569;51.252;9.830;2022-12-20T15:36:21;8.80;;;5.20;;
44832;SDS011;30569;51.252;9.830;2022-12-20T15:38:50;9.05;;;5.35;;
44832;SDS011;30569;51.252;9.830;2022-12-20T15:41:23;9.35;;;5.20;;
44832;SDS011;30569;51.252;9.830;2022-12-20T15:43:59;10.35;;;5.22;;
44832;SDS011;30569;51.252;9.830;2022-12-20T15:46:34;10.63;;;5.70;;
44832;SDS011;30569;51.252;9.830;2022-12-20T15:49:00;13.82;;;6.57;;
44832;SDS011;30569;51.252;9.830;2022-12-20T15:51:30;9.32;;;4.43;;
44832;SDS011;30569;51.252;9.830;2022-12-20T15:53:58;11.88;;;5.57;;
44832;SDS011;30569;51.252;9.830;2022-12-20T15:56:26;13.32;;;5.35;;
44832;SDS011;30569;51.252;9.830;2022-12-20T15:58:52;9.85;;;4.68;;
44832;SDS011;30569;51.252;9.830;2022-12-20T16:01:19;11.25;;;5.40;;
44832;SDS011;30569;51.252;9.830;2022-12-20T16:03:47;9.82;;;5.32;;
44832;SDS011;30569;51.252;9.830;2022-12-20T16:06:13;10.55;;;5.60;;
44832;SDS011;30569;51.252;9.830;2022-12-20T16:08:39;9.10;;;5.30;;
44832;SDS011;30569;51.252;9.830;2022-12-20T16:11:06;9.65;;;5.43;;
44832;SDS011;30569;51.252;9.830;2022-12-20T16:13:41;11.57;;;5.72;;
44832;SDS011;30569;51.252;9.830;2022-12-20T16:16:11;10.15;;;5.80;;
44832;SDS011;30569;51.252;9.830;2022-12-20T16:18:42;10.45;;;5.95;;
44832;SDS011;30569;51.252;9.830;2022-12-20T16:21:26;10.50;;;5.70;;
44832;SDS011;30569;51.252;9.830;2022-12-20T16:23:54;12.95;;;8.80;;
44832;SDS011;30569;51.252;9.830;2022-12-20T16:26:21;12.63;;;7.50;;
44832;SDS011;30569;51.252;9.830;2022-12-20T16:28:48;12.80;;;6.53;;
44832;SDS011;30569;51.252;9.830;2022-12-20T16:33:41;11.52;;;6.15;;
44832;SDS011;30569;51.252;9.830;2022-12-20T16:36:08;14.38;;;7.03;;
44832;SDS011;30569;51.252;9.830;2022-12-20T16:38:35;11.68;;;6.07;;
44832;SDS011;30569;51.252;9.830;2022-12-20T16:41:14;10.30;;;5.70;;
44832;SDS011;30569;51.252;9.830;2022-12-20T16:43:42;9.68;;;5.78;;